METAR AND TAF INFORMATION
METAR FOR MROC
ADDS - METARS form results

(1205 UTC 26 January 2021)
Data provider http://aviationweather.gov/metar/data/
 
METAR text: MROC 261200Z 11008KT CAVOK 19/14 A2994 NOSIG
Conditions at: MROC (JUAN SANTAMARIA , CR) observed 1200 UTC 26 January 2021
Temperature: 19.0°C (66°F)
Dewpoint: 14.0°C (57°F) [RH = 73%]
Pressure (altimeter): 29.94 inches Hg (1014.0 mb)
Winds: from the ESE (110 degrees) at 9 MPH (8 knots; 4.1 m/s)
Visibility: 6 or more miles (10+ km)
Ceiling: ceiling and visibility are OK
Clouds: unknown
Weather: no significant weather observed at this time

 AIRPORT MAP

 RUNWAY INFORMATION
Runway 07 Runway length 9882 ft Runway width 151 ft
Runway elevation 2936 ft Runway displaced threshold 0 ft Runway heading 69
Runway 25 Runway length 9882 ft Runway width 151 ft
Runway elevation 3045 ft Runway displaced threshold 1969 ft Runway heading 249

 AIRPORT FREQUENCIES
Type ACC Name COCO CON Frequency 119.6 MHZ
Type APP Name COCO APP Frequency 120.5 MHZ
Type CLD Name CLNC Frequency 121.3 MHZ
Type GND Name GND Frequency 121.9 MHZ
Type RDO Name COCO RDO Frequency 126.8 MHZ
Type TWR Name COCO TWR Frequency 118.6 MHZ

 AIRPORT NEAR NAVIGATION AIDS
Type NDB Name Horcones Frequency 260 KHZ
Type VOR-DME Name El Coco Frequency 115700 KHZ